createdAt,value
2019-04-01T00:03:49.440Z,8.35
2019-04-01T00:08:53.403Z,6.37
2019-04-01T00:13:57.362Z,6.35
2019-04-01T00:19:03.233Z,5.90
2019-04-01T00:24:06.874Z,5.30
2019-04-01T00:29:10.742Z,6.28
2019-04-01T00:34:14.670Z,7.20
2019-04-01T00:39:18.652Z,7.00
2019-04-01T00:44:22.509Z,7.10
2019-04-01T00:49:26.368Z,7.72
2019-04-01T00:54:30.340Z,6.53
2019-04-01T00:59:34.205Z,6.67
2019-04-01T01:04:38.200Z,7.78
2019-04-01T01:09:43.173Z,7.70
2019-04-01T01:14:54.911Z,7.85
2019-04-01T01:19:58.815Z,7.90
2019-04-01T01:25:02.715Z,7.55
2019-04-01T01:30:08.293Z,7.42
2019-04-01T01:35:12.198Z,7.70
2019-04-01T01:40:16.102Z,7.15
2019-04-01T01:45:20.025Z,6.15
2019-04-01T01:50:23.922Z,6.70
2019-04-01T01:55:27.748Z,7.42
2019-04-01T02:00:32.244Z,7.10
2019-04-01T02:05:36.148Z,7.80
2019-04-01T02:10:40.048Z,8.00
2019-04-01T02:15:44.114Z,8.53
2019-04-01T02:20:47.953Z,7.37
2019-04-01T02:25:51.861Z,7.50
2019-04-01T02:30:55.691Z,7.78
2019-04-01T02:35:59.594Z,7.42
2019-04-01T02:41:03.557Z,6.72
2019-04-01T02:46:07.460Z,7.67
2019-04-01T02:51:11.296Z,6.72
2019-04-01T02:56:15.130Z,7.10
2019-04-01T03:01:19.025Z,10.88
2019-04-01T03:06:22.848Z,12.37
2019-04-01T03:11:26.787Z,18.20
2019-04-01T03:16:30.635Z,66.55
2019-04-01T03:21:34.531Z,79.60
2019-04-01T03:26:38.539Z,13.83
2019-04-01T03:31:42.440Z,6.37
2019-04-01T03:36:46.340Z,6.22
2019-04-01T03:41:50.244Z,6.60
2019-04-01T03:46:54.071Z,6.45
2019-04-01T03:51:57.977Z,6.20
2019-04-01T03:57:01.883Z,7.12
2019-04-01T04:02:05.933Z,8.35
2019-04-01T04:07:09.809Z,7.42
2019-04-01T04:12:13.703Z,8.58
2019-04-01T04:17:17.767Z,8.25
2019-04-01T04:22:21.723Z,6.55
2019-04-01T04:27:25.582Z,6.78
2019-04-01T04:32:29.445Z,6.50
2019-04-01T04:37:33.309Z,6.45
2019-04-01T04:42:37.179Z,6.37
2019-04-01T04:47:41.063Z,7.20
2019-04-01T04:52:44.921Z,7.92
2019-04-01T04:57:48.773Z,9.65
2019-04-01T05:02:52.567Z,15.78
2019-04-01T05:07:56.355Z,9.83
2019-04-01T05:13:00.218Z,9.48
2019-04-01T05:18:04.011Z,15.48
2019-04-01T05:23:08.770Z,18.12
2019-04-01T05:28:14.103Z,29.85
2019-04-01T05:33:20.894Z,9.73
2019-04-01T05:38:24.760Z,10.10
2019-04-01T05:43:29.628Z,8.50
2019-04-01T05:48:33.496Z,8.88
2019-04-01T05:53:37.360Z,9.03
2019-04-01T05:58:41.231Z,9.88
2019-04-01T06:03:45.092Z,7.37
2019-04-01T06:08:48.883Z,8.00
2019-04-01T06:13:52.752Z,7.30
2019-04-01T06:18:56.689Z,9.65
2019-04-01T06:24:00.586Z,8.40
2019-04-01T06:29:04.498Z,9.40
2019-04-01T06:34:08.399Z,9.30
2019-04-01T06:39:12.226Z,10.58
2019-04-01T06:44:16.118Z,9.43
2019-04-01T06:49:20.481Z,7.95
2019-04-01T06:54:24.530Z,8.80
2019-04-01T06:59:28.438Z,7.50
2019-04-01T07:04:32.306Z,7.17
2019-04-01T07:09:36.174Z,6.90
2019-04-01T07:14:40.047Z,7.53
2019-04-01T07:19:43.920Z,6.87
2019-04-01T07:24:47.804Z,7.75
2019-04-01T07:29:51.654Z,6.08
2019-04-01T07:34:55.559Z,6.20
2019-04-01T07:39:59.616Z,5.12
2019-04-01T07:45:04.985Z,6.78
2019-04-01T07:50:11.990Z,5.87
2019-04-01T07:55:14.779Z,5.80
2019-04-01T08:00:18.653Z,6.15
2019-04-01T08:05:25.873Z,6.78
2019-04-01T08:10:28.075Z,4.92
2019-04-01T08:15:32.145Z,4.40
2019-04-01T08:20:36.164Z,4.55
2019-04-01T08:25:40.078Z,2.90
2019-04-01T08:30:43.916Z,4.90
2019-04-01T08:35:47.819Z,3.72
2019-04-01T08:40:51.724Z,3.67
2019-04-01T08:45:55.641Z,3.17
2019-04-01T08:50:59.668Z,5.10
2019-04-01T08:56:03.843Z,3.70
2019-04-01T09:01:07.738Z,3.30
2019-04-01T09:06:11.936Z,4.92
2019-04-01T09:11:16.039Z,5.75
2019-04-01T09:16:20.815Z,3.45
2019-04-01T09:21:24.745Z,3.55
2019-04-01T09:26:28.654Z,3.67
2019-04-01T09:31:32.647Z,4.05
2019-04-01T09:36:36.584Z,4.10
2019-04-01T09:41:40.480Z,3.98
2019-04-01T09:46:44.461Z,3.45
2019-04-01T09:51:49.247Z,3.10
2019-04-01T09:56:53.295Z,3.02
2019-04-01T10:01:57.195Z,3.05
2019-04-01T10:07:01.093Z,4.42
2019-04-01T10:12:05.009Z,3.30
2019-04-01T10:17:09.053Z,3.52
2019-04-01T10:22:12.900Z,3.42
2019-04-01T10:27:16.779Z,11.05
2019-04-01T10:32:20.665Z,4.03
2019-04-01T10:37:24.643Z,3.42
2019-04-01T10:42:29.213Z,2.98
2019-04-01T10:47:33.216Z,3.60
2019-04-01T10:52:38.296Z,2.83
2019-04-01T10:57:43.793Z,3.20
2019-04-01T11:02:50.065Z,2.70
2019-04-01T11:07:53.650Z,2.45
2019-04-01T11:12:57.622Z,3.30
2019-04-01T11:18:02.611Z,3.22
2019-04-01T11:23:08.506Z,2.67
2019-04-01T11:28:12.545Z,11.68
2019-04-01T11:33:18.460Z,3.30
2019-04-01T11:38:22.471Z,2.35
2019-04-01T11:43:27.305Z,2.35
2019-04-01T11:48:31.412Z,3.60
2019-04-01T11:53:36.608Z,3.37
2019-04-01T11:58:42.839Z,2.40
2019-04-01T12:03:46.764Z,1.75
2019-04-01T12:08:50.641Z,3.70
2019-04-01T12:13:54.526Z,2.10
2019-04-01T12:18:58.385Z,1.30
2019-04-01T12:24:02.382Z,1.37
2019-04-01T12:29:06.246Z,1.52
2019-04-01T12:34:10.147Z,2.58
2019-04-01T12:39:14.566Z,1.52
2019-04-01T12:44:18.420Z,2.02
2019-04-01T12:49:24.226Z,3.55
2019-04-01T12:54:27.850Z,3.55
2019-04-01T12:59:33.084Z,5.08
2019-04-01T13:04:37.020Z,2.62
2019-04-01T13:09:40.897Z,1.20
2019-04-01T13:14:44.870Z,2.98
2019-04-01T13:19:48.727Z,1.95
2019-04-01T13:24:52.594Z,3.05
2019-04-01T13:29:56.468Z,3.25
2019-04-01T13:35:00.349Z,1.80
2019-04-01T13:40:04.734Z,2.50
2019-04-01T13:45:08.783Z,2.65
2019-04-01T13:50:16.173Z,2.25
2019-04-01T13:55:18.571Z,2.30
2019-04-01T14:00:27.022Z,3.22
2019-04-01T14:05:29.011Z,6.12
2019-04-01T14:10:32.894Z,4.78
2019-04-01T14:15:36.949Z,4.33
2019-04-01T14:20:40.855Z,2.52
2019-04-01T14:25:44.808Z,1.60
2019-04-01T14:30:50.302Z,3.87
2019-04-01T14:35:54.352Z,3.40
2019-04-01T14:40:58.275Z,4.37
2019-04-01T14:46:02.153Z,2.37
2019-04-01T14:51:06.076Z,5.53
2019-04-01T14:56:10.176Z,3.90
2019-04-01T15:01:14.366Z,2.08
2019-04-01T15:06:18.389Z,4.53
2019-04-01T15:11:22.330Z,3.05
2019-04-01T15:16:26.334Z,1.82
2019-04-01T15:21:30.688Z,4.40
2019-04-01T15:26:34.593Z,1.60
2019-04-01T15:31:39.963Z,3.22
2019-04-01T15:36:44.323Z,4.28
2019-04-01T15:41:48.375Z,5.40
2019-04-01T15:46:52.308Z,4.00
2019-04-01T15:51:56.208Z,6.72
2019-04-01T15:57:00.144Z,8.88
2019-04-01T16:02:04.125Z,5.08
2019-04-01T16:07:08.124Z,4.83
2019-04-01T16:12:12.066Z,7.80
2019-04-01T16:17:15.931Z,7.35
2019-04-01T16:22:20.038Z,3.40
2019-04-01T16:27:23.925Z,6.40
2019-04-01T16:32:28.529Z,15.25
2019-04-01T16:37:33.401Z,16.95
2019-04-01T16:42:37.303Z,9.00
2019-04-01T16:47:42.670Z,25.88
2019-04-01T16:52:46.541Z,13.93
2019-04-01T16:57:50.442Z,6.05
2019-04-01T17:02:56.469Z,9.68
2019-04-01T17:08:00.386Z,14.70
2019-04-01T17:13:04.279Z,14.28
2019-04-01T17:18:08.602Z,8.75
2019-04-01T17:23:14.051Z,6.83
2019-04-01T17:28:19.018Z,4.12
2019-04-01T17:33:23.250Z,4.65
2019-04-01T17:38:28.309Z,4.92
2019-04-01T17:43:32.188Z,9.15
2019-04-01T17:48:36.090Z,23.87
2019-04-01T17:53:40.058Z,7.25
2019-04-01T17:58:44.432Z,8.78
2019-04-01T18:03:48.695Z,8.48
2019-04-01T18:08:52.994Z,7.92
2019-04-01T18:13:56.895Z,7.22
2019-04-01T18:19:00.917Z,7.97
2019-04-01T18:24:06.462Z,8.03
2019-04-01T18:29:11.172Z,9.30
2019-04-01T18:34:16.652Z,7.15
2019-04-01T18:39:20.663Z,27.15
2019-04-01T18:44:25.445Z,18.12
2019-04-01T18:49:29.699Z,13.60
2019-04-01T18:54:34.100Z,12.90
2019-04-01T18:59:38.243Z,11.63
2019-04-01T19:04:42.318Z,8.30
2019-04-01T19:09:46.183Z,38.45
2019-04-01T19:14:56.339Z,12.55
2019-04-01T19:20:00.207Z,7.72
2019-04-01T19:25:05.778Z,8.50
2019-04-01T19:30:11.168Z,8.13
2019-04-01T19:35:15.406Z,11.45
2019-04-01T19:40:20.780Z,12.60
2019-04-01T19:45:26.377Z,11.48
2019-04-01T19:50:30.998Z,11.38
2019-04-01T19:55:35.103Z,9.25
2019-04-01T20:00:38.935Z,10.43
2019-04-01T20:05:42.839Z,10.72
2019-04-01T20:10:46.751Z,11.75
2019-04-01T20:15:50.997Z,11.63
2019-04-01T20:20:54.949Z,25.75
2019-04-01T20:25:58.989Z,27.30
2019-04-01T20:31:02.910Z,25.85
2019-04-01T20:36:06.827Z,16.00
2019-04-01T20:41:10.742Z,20.62
2019-04-01T20:46:18.476Z,23.07
2019-04-01T20:51:22.398Z,32.95
2019-04-01T20:56:26.303Z,23.70
2019-04-01T21:01:30.268Z,17.48
2019-04-01T21:06:34.240Z,20.15
2019-04-01T21:11:38.215Z,14.53
2019-04-01T21:16:43.105Z,12.13
2019-04-01T21:21:47.237Z,10.53
2019-04-01T21:26:51.127Z,16.25
2019-04-01T21:31:54.998Z,14.23
2019-04-01T21:36:58.941Z,10.28
2019-04-01T21:42:02.791Z,7.47
2019-04-01T21:47:06.660Z,15.70
2019-04-01T21:52:10.744Z,8.90
2019-04-01T21:57:14.594Z,7.37
2019-04-01T22:02:18.460Z,11.00
2019-04-01T22:07:22.348Z,15.38
2019-04-01T22:12:26.988Z,8.93
2019-04-01T22:17:31.074Z,5.53
2019-04-01T22:22:34.971Z,5.80
2019-04-01T22:27:38.993Z,5.67
2019-04-01T22:32:42.840Z,10.25
2019-04-01T22:37:46.725Z,8.33
2019-04-01T22:42:50.592Z,6.92
2019-04-01T22:47:54.492Z,5.42
2019-04-01T22:52:58.386Z,5.72
2019-04-01T22:58:02.203Z,6.25
2019-04-01T23:03:06.081Z,7.03
2019-04-01T23:08:09.950Z,8.10
2019-04-01T23:13:13.822Z,5.87
2019-04-01T23:18:17.693Z,5.15
2019-04-01T23:23:21.486Z,5.40
2019-04-01T23:28:25.383Z,5.83
2019-04-01T23:33:29.248Z,5.45
2019-04-01T23:38:33.054Z,5.33
2019-04-01T23:43:41.339Z,6.53
2019-04-01T23:48:45.334Z,5.50
2019-04-01T23:53:49.210Z,5.37
2019-04-01T23:58:53.064Z,5.42
